Time;durP1;ratioP1;P1;durP2;ratioP2;P2;SDS_P1;SDS_P2;PMS_P1;PMS_P2;Temp;Humidity;BMP_temperature;BMP_pressure;BME280_temperature;BME280_humidity;BME280_pressure;Samples;Min_cycle;Max_cycle;Signal;HPM_P1;HPM_P2
2023/03/06 00:01:52;;;;;;;;;;;;;;;;;;5081716;28;19973;-43
2023/03/06 00:04:18;;;;;;;;;;;;;;;;;;5081856;28;19910;-43
2023/03/06 00:06:44;;;;;;;;;;;;;;;;;;5074788;28;20007;-42
2023/03/06 00:09:10;;;;;;;;;;;;;;;;;;5080369;28;20366;-43
2023/03/06 00:11:36;;;;;;;;;;;;;;;;;;5082875;28;19911;-42
2023/03/06 00:14:02;;;;;;;;;;;;;;;;;;5082330;28;19927;-43
2023/03/06 00:16:28;;;;;;;;;;;;;;;;;;5080595;28;20532;-42
2023/03/06 00:18:54;;;;;;;;;;;;;;;;;;5069996;28;19912;-42
2023/03/06 00:21:19;;;;;;;;;;;;;;;;;;5075881;28;19908;-42
2023/03/06 00:23:45;;;;;;;;;;;;;;;;;;5084614;28;19998;-42
2023/03/06 00:26:11;;;;;;;;;;;;;;;;;;5092802;28;19981;-42
2023/03/06 00:28:37;;;;;;;;;;;;;;;;;;5090191;28;19916;-42
2023/03/06 00:31:03;;;;;;;;;;;;;;;;;;5073277;28;19915;-43
2023/03/06 00:33:29;;;;;;;;;;;;;;;;;;5072889;28;19912;-44
2023/03/06 00:35:55;;;;;;;;;;;;;;;;;;5066380;28;19908;-42
2023/03/06 00:38:21;;;;;;;;;;;;;;;;;;5072782;28;19999;-43
2023/03/06 00:40:46;;;;;;;;;;;;;;;;;;5073072;28;19965;-42
2023/03/06 00:43:12;;;;;;;;;;;;;;;;;;5072676;28;19916;-42
2023/03/06 00:45:38;;;;;;;;;;;;;;;;;;5072664;28;20386;-43
2023/03/06 00:48:04;;;;;;;;;;;;;;;;;;5057366;28;20011;-43
2023/03/06 00:50:30;;;;;;;;;;;;;;;;;;5052096;28;19912;-42
2023/03/06 00:52:56;;;;;;;;;;;;;;;;;;5047712;28;19916;-42
2023/03/06 00:55:22;;;;;;;;;;;;;;;;;;5051806;28;19909;-42
2023/03/06 00:57:47;;;;;;;;;;;;;;;;;;5053213;28;19928;-42
2023/03/06 01:00:13;;;;;;;;;;;;;;;;;;5051960;28;19914;-42
2023/03/06 01:02:39;;;;;;;;;;;;;;;;;;5052879;28;19912;-42
2023/03/06 01:05:05;;;;;;;;;;;;;;;;;;5052338;28;19951;-42
2023/03/06 01:07:35;;;;;;;;;;;;;;;;;;5052285;28;20336;-42
2023/03/06 01:10:01;;;;;;;;;;;;;;;;;;5046039;28;19913;-42
2023/03/06 01:12:27;;;;;;;;;;;;;;;;;;5052047;28;19909;-43
2023/03/06 01:14:52;;;;;;;;;;;;;;;;;;5052180;28;19904;-43
2023/03/06 01:17:18;;;;;;;;;;;;;;;;;;5051836;28;19943;-43
2023/03/06 01:19:44;;;;;;;;;;;;;;;;;;5052341;28;19904;-42
2023/03/06 01:22:10;;;;;;;;;;;;;;;;;;5051984;28;19905;-45
2023/03/06 01:24:36;;;;;;;;;;;;;;;;;;5058637;28;22773;-44
2023/03/06 01:27:02;;;;;;;;;;;;;;;;;;5052438;28;19916;-42
2023/03/06 01:29:28;;;;;;;;;;;;;;;;;;5051229;28;19904;-42
2023/03/06 01:31:54;;;;;;;;;;;;;;;;;;5051684;28;19931;-43
2023/03/06 01:34:19;;;;;;;;;;;;;;;;;;5050824;28;20360;-42
2023/03/06 01:36:45;;;;;;;;;;;;;;;;;;5052552;28;19904;-42
2023/03/06 01:39:11;;;;;;;;;;;;;;;;;;5051609;28;19954;-43
2023/03/06 01:41:37;;;;;;;;;;;;;;;;;;5050150;28;20361;-42
2023/03/06 01:44:03;;;;;;;;;;;;;;;;;;5071934;28;19908;-42
2023/03/06 01:46:29;;;;;;;;;;;;;;;;;;5070782;28;19991;-42
2023/03/06 01:48:55;;;;;;;;;;;;;;;;;;5072340;28;19908;-45
2023/03/06 01:51:21;;;;;;;;;;;;;;;;;;5071097;28;20377;-43
2023/03/06 01:53:47;;;;;;;;;;;;;;;;;;5072082;28;19905;-43
2023/03/06 01:56:13;;;;;;;;;;;;;;;;;;5071311;28;19904;-43
2023/03/06 01:58:38;;;;;;;;;;;;;;;;;;5058971;28;19955;-42
2023/03/06 02:01:04;;;;;;;;;;;;;;;;;;5071487;28;19930;-42
2023/03/06 02:03:30;;;;;;;;;;;;;;;;;;5071127;28;19909;-42
2023/03/06 02:05:56;;;;;;;;;;;;;;;;;;5071663;28;19912;-43
2023/03/06 02:08:22;;;;;;;;;;;;;;;;;;5071264;28;19995;-43
2023/03/06 02:10:48;;;;;;;;;;;;;;;;;;5071876;28;19962;-43
2023/03/06 02:13:14;;;;;;;;;;;;;;;;;;5059626;28;20315;-42
2023/03/06 02:15:39;;;;;;;;;;;;;;;;;;5051354;28;19905;-42
2023/03/06 02:18:05;;;;;;;;;;;;;;;;;;5052254;28;19905;-43
2023/03/06 02:20:31;;;;;;;;;;;;;;;;;;5050819;28;19928;-42
2023/03/06 02:22:57;;;;;;;;;;;;;;;;;;5056236;28;20386;-42
2023/03/06 02:25:23;;;;;;;;;;;;;;;;;;5070902;28;19911;-42
2023/03/06 02:27:49;;;;;;;;;;;;;;;;;;5071853;28;20377;-43
2023/03/06 02:30:15;;;;;;;;;;;;;;;;;;5062117;28;19913;-42
2023/03/06 02:32:40;;;;;;;;;;;;;;;;;;5050745;28;19909;-42
2023/03/06 02:35:06;;;;;;;;;;;;;;;;;;5051357;28;20055;-43
2023/03/06 02:37:32;;;;;;;;;;;;;;;;;;5051876;28;19916;-42
2023/03/06 02:39:58;;;;;;;;;;;;;;;;;;5051462;28;20355;-42
2023/03/06 02:42:24;;;;;;;;;;;;;;;;;;5050814;28;19959;-43
2023/03/06 02:44:50;;;;;;;;;;;;;;;;;;5054746;28;19904;-42
2023/03/06 02:47:16;;;;;;;;;;;;;;;;;;5053306;28;19916;-42
2023/03/06 02:49:42;;;;;;;;;;;;;;;;;;5063808;28;19939;-43
2023/03/06 02:52:08;;;;;;;;;;;;;;;;;;5075478;28;19999;-43
2023/03/06 02:54:33;;;;;;;;;;;;;;;;;;5075147;28;19904;-42
2023/03/06 02:56:59;;;;;;;;;;;;;;;;;;5075974;28;20377;-43
2023/03/06 02:59:25;;;;;;;;;;;;;;;;;;5074278;28;19905;-44
2023/03/06 03:01:51;;;;;;;;;;;;;;;;;;5075582;28;19950;-42
2023/03/06 03:04:17;;;;;;;;;;;;;;;;;;5074042;28;19904;-43
2023/03/06 03:06:43;;;;;;;;;;;;;;;;;;5053033;28;19987;-42
2023/03/06 03:09:09;;;;;;;;;;;;;;;;;;5054779;28;20351;-43
2023/03/06 03:11:34;;;;;;;;;;;;;;;;;;5054658;28;19920;-42
2023/03/06 03:14:00;;;;;;;;;;;;;;;;;;5055394;28;19909;-43
2023/03/06 03:16:26;;;;;;;;;;;;;;;;;;5054040;28;20482;-42
2023/03/06 03:18:52;;;;;;;;;;;;;;;;;;5054968;28;19909;-42
2023/03/06 03:21:18;;;;;;;;;;;;;;;;;;5053775;28;19940;-42
2023/03/06 03:23:44;;;;;;;;;;;;;;;;;;5036995;28;19955;-44
2023/03/06 03:26:10;;;;;;;;;;;;;;;;;;5053929;28;20258;-44
2023/03/06 03:28:35;;;;;;;;;;;;;;;;;;5058589;28;19908;-42
2023/03/06 03:31:01;;;;;;;;;;;;;;;;;;5074140;28;19932;-42
2023/03/06 03:33:27;;;;;;;;;;;;;;;;;;5074160;28;19900;-42
2023/03/06 03:35:53;;;;;;;;;;;;;;;;;;5074534;28;20389;-42
2023/03/06 03:38:19;;;;;;;;;;;;;;;;;;5064166;28;19904;-42
2023/03/06 03:40:45;;;;;;;;;;;;;;;;;;5049114;28;19963;-42
2023/03/06 03:43:11;;;;;;;;;;;;;;;;;;5054110;28;20355;-43
2023/03/06 03:45:36;;;;;;;;;;;;;;;;;;5054290;28;19905;-42
2023/03/06 03:48:02;;;;;;;;;;;;;;;;;;5054204;28;19917;-42
2023/03/06 03:50:28;;;;;;;;;;;;;;;;;;5053255;28;19990;-42
2023/03/06 03:52:54;;;;;;;;;;;;;;;;;;5054627;28;19908;-42
2023/03/06 03:55:20;;;;;;;;;;;;;;;;;;5052323;28;20278;-42
2023/03/06 03:57:46;;;;;;;;;;;;;;;;;;5048553;28;19955;-42
2023/03/06 04:00:15;;;;;;;;;;;;;;;;;;5053054;28;19915;-42
2023/03/06 04:02:41;;;;;;;;;;;;;;;;;;5054468;28;19958;-42
2023/03/06 04:05:06;;;;;;;;;;;;;;;;;;5053722;28;20326;-45
2023/03/06 04:07:32;;;;;;;;;;;;;;;;;;5053669;28;19947;-42
2023/03/06 04:09:58;;;;;;;;;;;;;;;;;;5053492;28;20363;-42
2023/03/06 04:12:24;;;;;;;;;;;;;;;;;;5050773;28;19912;-41
2023/03/06 04:14:50;;;;;;;;;;;;;;;;;;5049518;28;19908;-44
2023/03/06 04:17:16;;;;;;;;;;;;;;;;;;5053375;28;19905;-43
2023/03/06 04:19:42;;;;;;;;;;;;;;;;;;5053474;28;19963;-43
2023/03/06 04:22:07;;;;;;;;;;;;;;;;;;5053641;28;20382;-44
2023/03/06 04:24:33;;;;;;;;;;;;;;;;;;5070568;28;19994;-43
2023/03/06 04:26:59;;;;;;;;;;;;;;;;;;5073759;28;20346;-42
2023/03/06 04:29:25;;;;;;;;;;;;;;;;;;5057146;28;19913;-42
2023/03/06 04:31:51;;;;;;;;;;;;;;;;;;5033928;28;19932;-43
2023/03/06 04:34:17;;;;;;;;;;;;;;;;;;5033020;28;19905;-42
2023/03/06 04:36:46;;;;;;;;;;;;;;;;;;5033421;28;19906;-42
2023/03/06 04:39:12;;;;;;;;;;;;;;;;;;5032563;28;19998;-42
2023/03/06 04:41:37;;;;;;;;;;;;;;;;;;5033832;28;20363;-42
2023/03/06 04:44:03;;;;;;;;;;;;;;;;;;5033705;28;20352;-42
2023/03/06 04:46:29;;;;;;;;;;;;;;;;;;5039262;28;20027;-42
2023/03/06 04:48:55;;;;;;;;;;;;;;;;;;5073512;28;19915;-42
2023/03/06 04:51:21;;;;;;;;;;;;;;;;;;5072491;28;20232;-42
2023/03/06 04:53:47;;;;;;;;;;;;;;;;;;5073448;28;19999;-42
2023/03/06 04:56:13;;;;;;;;;;;;;;;;;;5072248;28;19914;-42
2023/03/06 04:58:39;;;;;;;;;;;;;;;;;;5073330;28;20367;-42
2023/03/06 05:01:04;;;;;;;;;;;;;;;;;;5072509;28;19905;-42
2023/03/06 05:03:30;;;;;;;;;;;;;;;;;;5048021;28;19958;-42
2023/03/06 05:05:56;;;;;;;;;;;;;;;;;;5052120;28;20014;-43
2023/03/06 05:08:22;;;;;;;;;;;;;;;;;;5052300;28;19950;-42
2023/03/06 05:10:48;;;;;;;;;;;;;;;;;;5052679;28;20011;-42
2023/03/06 05:13:14;;;;;;;;;;;;;;;;;;5052032;28;19936;-42
2023/03/06 05:15:40;;;;;;;;;;;;;;;;;;5052359;28;20359;-42
2023/03/06 05:18:06;;;;;;;;;;;;;;;;;;5048086;28;19909;-43
2023/03/06 05:20:32;;;;;;;;;;;;;;;;;;5050870;28;19919;-43
2023/03/06 05:22:58;;;;;;;;;;;;;;;;;;5057269;28;19904;-42
2023/03/06 05:25:24;;;;;;;;;;;;;;;;;;5071674;28;19904;-42
2023/03/06 05:27:50;;;;;;;;;;;;;;;;;;5072779;28;19904;-42
2023/03/06 05:30:16;;;;;;;;;;;;;;;;;;5053836;28;19909;-42
2023/03/06 05:32:42;;;;;;;;;;;;;;;;;;5052571;28;19999;-42
2023/03/06 05:35:08;;;;;;;;;;;;;;;;;;5051907;28;20386;-44
2023/03/06 05:37:34;;;;;;;;;;;;;;;;;;5047596;28;19916;-43
2023/03/06 05:40:00;;;;;;;;;;;;;;;;;;5051917;28;19912;-42
2023/03/06 05:42:27;;;;;;;;;;;;;;;;;;5051578;28;19999;-43
2023/03/06 05:44:53;;;;;;;;;;;;;;;;;;5052130;28;20355;-43
2023/03/06 05:47:19;;;;;;;;;;;;;;;;;;5051365;28;20012;-44
2023/03/06 05:49:45;;;;;;;;;;;;;;;;;;5051921;28;20244;-42
2023/03/06 05:52:10;;;;;;;;;;;;;;;;;;5051656;28;19920;-43
2023/03/06 05:54:36;;;;;;;;;;;;;;;;;;5045720;28;19913;-42
2023/03/06 05:57:03;;;;;;;;;;;;;;;;;;5051693;28;19931;-43
2023/03/06 05:59:31;;;;;;;;;;;;;;;;;;5050319;28;19905;-42
2023/03/06 06:01:57;;;;;;;;;;;;;;;;;;5052055;28;19991;-42
2023/03/06 06:04:23;;;;;;;;;;;;;;;;;;5051029;28;20418;-44
2023/03/06 06:06:49;;;;;;;;;;;;;;;;;;5052074;28;19911;-43
2023/03/06 06:09:15;;;;;;;;;;;;;;;;;;5050522;28;20365;-43
2023/03/06 06:11:41;;;;;;;;;;;;;;;;;;5051558;28;19917;-42
2023/03/06 06:14:06;;;;;;;;;;;;;;;;;;5046664;28;20431;-43
2023/03/06 06:16:32;;;;;;;;;;;;;;;;;;5050435;28;19954;-42
2023/03/06 06:18:58;;;;;;;;;;;;;;;;;;5053949;28;19912;-42
2023/03/06 06:21:24;;;;;;;;;;;;;;;;;;5055059;28;19905;-43
2023/03/06 06:23:50;;;;;;;;;;;;;;;;;;5067927;28;19904;-42
2023/03/06 06:26:16;;;;;;;;;;;;;;;;;;5074916;28;19908;-43
2023/03/06 06:28:42;;;;;;;;;;;;;;;;;;5070976;28;20322;-42
2023/03/06 06:31:09;;;;;;;;;;;;;;;;;;5045260;28;19913;-43
2023/03/06 06:33:35;;;;;;;;;;;;;;;;;;5055971;28;19908;-42
2023/03/06 06:36:01;;;;;;;;;;;;;;;;;;5055112;28;19908;-43
2023/03/06 06:38:27;;;;;;;;;;;;;;;;;;5054991;28;19901;-43
2023/03/06 06:40:53;;;;;;;;;;;;;;;;;;5055164;28;19936;-42
2023/03/06 06:43:19;;;;;;;;;;;;;;;;;;5055241;28;19913;-44
2023/03/06 06:45:45;;;;;;;;;;;;;;;;;;5054980;28;20294;-43
2023/03/06 06:48:10;;;;;;;;;;;;;;;;;;5054683;28;19971;-46
2023/03/06 06:50:36;;;;;;;;;;;;;;;;;;5067917;28;19916;-45
2023/03/06 06:53:02;;;;;;;;;;;;;;;;;;5054713;28;20003;-42
2023/03/06 06:55:28;;;;;;;;;;;;;;;;;;5035820;28;20510;-39
2023/03/06 06:57:54;;;;;;;;;;;;;;;;;;5054752;28;19909;-41
2023/03/06 07:00:20;;;;;;;;;;;;;;;;;;5053633;28;19930;-41
2023/03/06 07:02:50;;;;;;;;;;;;;;;;;;5055103;28;19927;-41
2023/03/06 07:05:16;;;;;;;;;;;;;;;;;;5048225;28;19908;-42
2023/03/06 07:07:43;;;;;;;;;;;;;;;;;;5054852;28;19939;-40
2023/03/06 07:10:09;;;;;;;;;;;;;;;;;;5053781;28;19908;-43
2023/03/06 07:12:35;;;;;;;;;;;;;;;;;;5054601;28;20278;-41
2023/03/06 07:15:01;;;;;;;;;;;;;;;;;;5054126;28;19919;-43
2023/03/06 07:17:27;;;;;;;;;;;;;;;;;;5053671;28;19912;-41
2023/03/06 07:19:53;;;;;;;;;;;;;;;;;;5054064;28;19904;-41
2023/03/06 07:22:18;;;;;;;;;;;;;;;;;;5047781;28;19915;-41
2023/03/06 07:24:44;;;;;;;;;;;;;;;;;;5059523;28;19986;-40
2023/03/06 07:27:10;;;;;;;;;;;;;;;;;;5043402;28;19955;-41
2023/03/06 07:29:36;;;;;;;;;;;;;;;;;;5050128;28;19917;-41
2023/03/06 07:32:02;;;;;;;;;;;;;;;;;;5054167;28;19916;-41
2023/03/06 07:34:28;;;;;;;;;;;;;;;;;;5048897;28;20028;-41
2023/03/06 07:36:54;;;;;;;;;;;;;;;;;;5036049;28;20306;-41
2023/03/06 07:39:20;;;;;;;;;;;;;;;;;;5055395;28;19904;-42
2023/03/06 07:41:45;;;;;;;;;;;;;;;;;;5051861;28;19912;-41
2023/03/06 07:44:11;;;;;;;;;;;;;;;;;;5052979;28;19947;-42
2023/03/06 07:46:37;;;;;;;;;;;;;;;;;;5053705;28;20019;-41
2023/03/06 07:49:03;;;;;;;;;;;;;;;;;;5054121;28;19970;-42
2023/03/06 07:51:29;;;;;;;;;;;;;;;;;;5052498;28;20138;-41
2023/03/06 07:53:55;;;;;;;;;;;;;;;;;;5052168;28;19959;-42
2023/03/06 07:56:21;;;;;;;;;;;;;;;;;;5052883;28;19904;-41
2023/03/06 07:58:47;;;;;;;;;;;;;;;;;;5052987;28;19909;-40
2023/03/06 08:01:12;;;;;;;;;;;;;;;;;;5052244;28;19908;-40
2023/03/06 08:03:41;;;;;;;;;;;;;;;;;;5053579;28;19911;-41
2023/03/06 08:06:07;;;;;;;;;;;;;;;;;;5052986;28;19990;-43
2023/03/06 08:08:33;;;;;;;;;;;;;;;;;;5053607;28;19952;-40
2023/03/06 08:10:59;;;;;;;;;;;;;;;;;;5053280;28;19916;-41
2023/03/06 08:13:25;;;;;;;;;;;;;;;;;;5052761;28;20374;-41
2023/03/06 08:15:51;;;;;;;;;;;;;;;;;;5051044;28;19951;-42
2023/03/06 08:18:17;;;;;;;;;;;;;;;;;;5052790;28;19912;-42
2023/03/06 08:20:42;;;;;;;;;;;;;;;;;;5051559;28;19905;-41
2023/03/06 08:23:09;;;;;;;;;;;;;;;;;;5052986;28;19999;-42
2023/03/06 08:25:35;;;;;;;;;;;;;;;;;;5053070;28;19951;-42
2023/03/06 08:28:01;;;;;;;;;;;;;;;;;;5053673;28;19912;-41
2023/03/06 08:30:27;;;;;;;;;;;;;;;;;;5056364;28;19940;-42
2023/03/06 08:32:53;;;;;;;;;;;;;;;;;;5051224;28;19915;-41
2023/03/06 08:35:19;;;;;;;;;;;;;;;;;;5052137;28;19912;-41
2023/03/06 08:37:44;;;;;;;;;;;;;;;;;;5052201;28;19995;-42
2023/03/06 08:40:10;;;;;;;;;;;;;;;;;;5051555;28;19995;-41
2023/03/06 08:42:36;;;;;;;;;;;;;;;;;;5052389;28;19908;-41
2023/03/06 08:45:02;;;;;;;;;;;;;;;;;;5052699;28;19912;-41
2023/03/06 08:47:28;;;;;;;;;;;;;;;;;;5051683;28;19952;-40
2023/03/06 08:49:54;;;;;;;;;;;;;;;;;;5050610;28;19944;-41
2023/03/06 08:52:20;;;;;;;;;;;;;;;;;;5051942;28;19909;-41
2023/03/06 08:54:46;;;;;;;;;;;;;;;;;;5052255;28;19915;-41
2023/03/06 08:57:11;;;;;;;;;;;;;;;;;;5052453;28;19958;-41
2023/03/06 08:59:37;;;;;;;;;;;;;;;;;;5052482;28;19908;-41
2023/03/06 09:02:05;;;;;;;;;;;;;;;;;;5052439;28;19909;-41
2023/03/06 09:04:31;;;;;;;;;;;;;;;;;;5051531;28;19905;-41
2023/03/06 09:06:57;;;;;;;;;;;;;;;;;;5051816;28;19905;-41
2023/03/06 09:09:23;;;;;;;;;;;;;;;;;;5051396;28;19959;-41
2023/03/06 09:11:50;;;;;;;;;;;;;;;;;;5052162;28;19952;-41
2023/03/06 09:14:15;;;;;;;;;;;;;;;;;;5051265;28;19912;-41
2023/03/06 09:16:42;;;;;;;;;;;;;;;;;;5052900;28;19915;-41
2023/03/06 09:19:08;;;;;;;;;;;;;;;;;;5050406;28;19948;-43
2023/03/06 09:21:33;;;;;;;;;;;;;;;;;;5051392;28;20307;-41
2023/03/06 09:23:59;;;;;;;;;;;;;;;;;;5050577;28;20355;-41
2023/03/06 09:26:25;;;;;;;;;;;;;;;;;;5051249;28;19912;-40
2023/03/06 09:28:51;;;;;;;;;;;;;;;;;;5056405;28;19970;-41
2023/03/06 09:31:17;;;;;;;;;;;;;;;;;;5051072;28;20378;-41
2023/03/06 09:33:43;;;;;;;;;;;;;;;;;;5052004;28;19911;-41
2023/03/06 09:36:09;;;;;;;;;;;;;;;;;;5050972;28;19931;-43
2023/03/06 09:38:35;;;;;;;;;;;;;;;;;;5051864;28;19909;-42
2023/03/06 09:41:00;;;;;;;;;;;;;;;;;;5050634;28;20263;-41
2023/03/06 09:43:26;;;;;;;;;;;;;;;;;;5051242;28;19908;-43
2023/03/06 09:45:52;;;;;;;;;;;;;;;;;;5051622;28;19927;-41
2023/03/06 09:48:18;;;;;;;;;;;;;;;;;;5068062;28;19927;-41
2023/03/06 09:50:44;;;;;;;;;;;;;;;;;;5071106;28;19912;-41
2023/03/06 09:53:10;;;;;;;;;;;;;;;;;;5070037;28;20351;-42
2023/03/06 09:55:36;;;;;;;;;;;;;;;;;;5071472;28;20412;-41
2023/03/06 09:58:03;;;;;;;;;;;;;;;;;;5071047;28;19943;-41
2023/03/06 10:00:29;;;;;;;;;;;;;;;;;;5070554;28;19908;-41
2023/03/06 10:02:55;;;;;;;;;;;;;;;;;;5071640;28;19904;-41
2023/03/06 10:05:21;;;;;;;;;;;;;;;;;;5070435;28;20270;-41
2023/03/06 10:07:47;;;;;;;;;;;;;;;;;;5071920;28;19905;-41
2023/03/06 10:10:13;;;;;;;;;;;;;;;;;;5070183;28;19908;-42
2023/03/06 10:12:39;;;;;;;;;;;;;;;;;;5071647;28;20366;-41
2023/03/06 10:15:05;;;;;;;;;;;;;;;;;;5070359;28;19923;-40
2023/03/06 10:17:30;;;;;;;;;;;;;;;;;;5070757;28;19963;-42
2023/03/06 10:19:56;;;;;;;;;;;;;;;;;;5069468;28;19905;-41
2023/03/06 10:22:22;;;;;;;;;;;;;;;;;;5070890;28;19908;-41
2023/03/06 10:24:48;;;;;;;;;;;;;;;;;;5071021;28;20377;-41
2023/03/06 10:27:15;;;;;;;;;;;;;;;;;;5070939;28;19911;-41
2023/03/06 10:29:40;;;;;;;;;;;;;;;;;;5075421;28;19915;-41
2023/03/06 10:32:06;;;;;;;;;;;;;;;;;;5069757;28;19917;-42
2023/03/06 10:34:32;;;;;;;;;;;;;;;;;;5052691;28;19962;-41
2023/03/06 10:36:58;;;;;;;;;;;;;;;;;;5071228;28;19993;-41
2023/03/06 10:39:24;;;;;;;;;;;;;;;;;;5070622;28;19958;-41
2023/03/06 10:41:50;;;;;;;;;;;;;;;;;;5071300;28;20002;-43
2023/03/06 10:44:16;;;;;;;;;;;;;;;;;;5070143;28;20301;-42
2023/03/06 10:46:42;;;;;;;;;;;;;;;;;;5070990;28;19917;-41
2023/03/06 10:49:08;;;;;;;;;;;;;;;;;;5070177;28;19962;-42
2023/03/06 10:51:34;;;;;;;;;;;;;;;;;;5070288;28;20343;-41
2023/03/06 10:54:00;;;;;;;;;;;;;;;;;;5071271;28;19905;-40
2023/03/06 10:56:26;;;;;;;;;;;;;;;;;;5070122;28;19958;-43
2023/03/06 10:58:52;;;;;;;;;;;;;;;;;;5071180;28;19908;-40
2023/03/06 11:01:18;;;;;;;;;;;;;;;;;;5069995;28;19904;-42
2023/03/06 11:03:44;;;;;;;;;;;;;;;;;;5070998;28;19904;-42
2023/03/06 11:06:10;;;;;;;;;;;;;;;;;;5072891;28;19951;-43
2023/03/06 11:08:36;;;;;;;;;;;;;;;;;;5074397;28;19912;-41
2023/03/06 11:11:02;;;;;;;;;;;;;;;;;;5074010;28;20419;-42
2023/03/06 11:13:28;;;;;;;;;;;;;;;;;;5073445;28;20485;-42
2023/03/06 11:15:53;;;;;;;;;;;;;;;;;;5074385;28;19908;-43
2023/03/06 11:18:19;;;;;;;;;;;;;;;;;;5065843;28;19909;-41
2023/03/06 11:20:45;;;;;;;;;;;;;;;;;;5070989;28;19916;-43
2023/03/06 11:23:11;;;;;;;;;;;;;;;;;;5070527;28;19934;-41
2023/03/06 11:25:37;;;;;;;;;;;;;;;;;;5074257;28;19904;-41
2023/03/06 11:28:03;;;;;;;;;;;;;;;;;;5074204;28;19905;-42
2023/03/06 11:30:29;;;;;;;;;;;;;;;;;;5077356;28;19915;-41
2023/03/06 11:32:55;;;;;;;;;;;;;;;;;;5073795;28;19915;-42
2023/03/06 11:35:21;;;;;;;;;;;;;;;;;;5073263;28;19904;-41
2023/03/06 11:37:46;;;;;;;;;;;;;;;;;;5074189;28;19927;-42
2023/03/06 11:40:12;;;;;;;;;;;;;;;;;;5072140;28;19905;-41
2023/03/06 11:42:38;;;;;;;;;;;;;;;;;;5074293;28;19912;-42
2023/03/06 11:45:04;;;;;;;;;;;;;;;;;;5073851;28;19911;-43
2023/03/06 11:47:30;;;;;;;;;;;;;;;;;;5072943;28;19963;-45
2023/03/06 11:49:56;;;;;;;;;;;;;;;;;;5073298;28;20282;-42
2023/03/06 11:52:22;;;;;;;;;;;;;;;;;;5073452;28;19916;-42
2023/03/06 11:54:48;;;;;;;;;;;;;;;;;;5073540;28;19908;-42
2023/03/06 11:57:14;;;;;;;;;;;;;;;;;;5072401;28;20239;-42
2023/03/06 11:59:40;;;;;;;;;;;;;;;;;;5073574;28;19904;-43
2023/03/06 12:02:06;;;;;;;;;;;;;;;;;;5073691;28;19948;-43
2023/03/06 12:04:32;;;;;;;;;;;;;;;;;;5072556;28;19912;-42
2023/03/06 12:06:57;;;;;;;;;;;;;;;;;;5073837;28;19994;-43
2023/03/06 12:09:24;;;;;;;;;;;;;;;;;;5072266;28;20450;-43
2023/03/06 12:11:49;;;;;;;;;;;;;;;;;;5073748;28;19909;-42
2023/03/06 12:14:15;;;;;;;;;;;;;;;;;;5071849;28;19904;-42
2023/03/06 12:16:41;;;;;;;;;;;;;;;;;;5072765;28;19954;-42
2023/03/06 12:19:07;;;;;;;;;;;;;;;;;;5061820;28;19915;-43
2023/03/06 12:21:33;;;;;;;;;;;;;;;;;;5073012;28;19908;-42
2023/03/06 12:23:59;;;;;;;;;;;;;;;;;;5073494;28;19951;-42
2023/03/06 12:26:25;;;;;;;;;;;;;;;;;;5072237;28;19904;-42
2023/03/06 12:28:51;;;;;;;;;;;;;;;;;;5076618;28;19911;-42
2023/03/06 12:31:16;;;;;;;;;;;;;;;;;;5071269;28;19908;-43
2023/03/06 12:33:42;;;;;;;;;;;;;;;;;;5072403;28;19904;-42
2023/03/06 12:36:08;;;;;;;;;;;;;;;;;;5072042;28;20283;-42
2023/03/06 12:38:34;;;;;;;;;;;;;;;;;;5073136;28;19970;-42
2023/03/06 12:41:00;;;;;;;;;;;;;;;;;;5072638;28;19905;-41
2023/03/06 12:43:26;;;;;;;;;;;;;;;;;;5072127;28;19911;-41
2023/03/06 12:45:52;;;;;;;;;;;;;;;;;;5072392;28;19999;-42
2023/03/06 12:48:18;;;;;;;;;;;;;;;;;;5070740;28;19923;-42
2023/03/06 12:50:44;;;;;;;;;;;;;;;;;;5071321;28;19908;-41
2023/03/06 12:53:10;;;;;;;;;;;;;;;;;;5072047;28;19920;-43
2023/03/06 12:55:35;;;;;;;;;;;;;;;;;;5072495;28;20267;-42
2023/03/06 12:58:01;;;;;;;;;;;;;;;;;;5071625;28;19916;-41
2023/03/06 13:00:27;;;;;;;;;;;;;;;;;;5071308;28;19906;-42
2023/03/06 13:02:53;;;;;;;;;;;;;;;;;;5072489;28;19904;-43
2023/03/06 13:05:19;;;;;;;;;;;;;;;;;;5069966;28;19951;-43
2023/03/06 13:07:45;;;;;;;;;;;;;;;;;;5071609;28;20350;-43
2023/03/06 13:10:11;;;;;;;;;;;;;;;;;;5070586;28;19912;-42
2023/03/06 13:12:36;;;;;;;;;;;;;;;;;;5071211;28;19908;-41
2023/03/06 13:15:02;;;;;;;;;;;;;;;;;;5071049;28;21234;-42
2023/03/06 13:17:28;;;;;;;;;;;;;;;;;;5071260;28;19962;-42
2023/03/06 13:19:54;;;;;;;;;;;;;;;;;;5071397;28;19911;-42
2023/03/06 13:22:20;;;;;;;;;;;;;;;;;;5052175;28;20003;-42
2023/03/06 13:24:46;;;;;;;;;;;;;;;;;;5071031;28;20305;-42
2023/03/06 13:27:12;;;;;;;;;;;;;;;;;;5070519;28;19916;-43
2023/03/06 13:29:38;;;;;;;;;;;;;;;;;;5071382;28;19999;-42
2023/03/06 13:32:03;;;;;;;;;;;;;;;;;;5070929;28;19916;-42
2023/03/06 13:34:29;;;;;;;;;;;;;;;;;;5070415;28;20015;-42
2023/03/06 13:36:55;;;;;;;;;;;;;;;;;;5071396;28;19904;-42
2023/03/06 13:39:21;;;;;;;;;;;;;;;;;;5061496;28;20283;-41
2023/03/06 13:41:47;;;;;;;;;;;;;;;;;;5072518;28;19995;-42
2023/03/06 13:44:13;;;;;;;;;;;;;;;;;;5071890;28;19911;-43
2023/03/06 13:46:39;;;;;;;;;;;;;;;;;;5071550;28;19939;-42
2023/03/06 13:49:05;;;;;;;;;;;;;;;;;;5071847;28;20414;-41
2023/03/06 13:51:30;;;;;;;;;;;;;;;;;;5070504;28;20010;-42
2023/03/06 13:53:56;;;;;;;;;;;;;;;;;;5072001;28;19919;-42
2023/03/06 13:56:22;;;;;;;;;;;;;;;;;;5069795;28;20354;-42
2023/03/06 13:58:48;;;;;;;;;;;;;;;;;;5071447;28;19998;-42
2023/03/06 14:01:14;;;;;;;;;;;;;;;;;;5070138;28;19908;-42
2023/03/06 14:03:40;;;;;;;;;;;;;;;;;;5071625;28;19908;-41
2023/03/06 14:06:06;;;;;;;;;;;;;;;;;;5071430;28;19950;-42
2023/03/06 14:08:31;;;;;;;;;;;;;;;;;;5070532;28;20388;-41
2023/03/06 14:10:57;;;;;;;;;;;;;;;;;;5070898;28;19993;-41
2023/03/06 14:13:23;;;;;;;;;;;;;;;;;;5070186;28;19912;-42
2023/03/06 14:15:49;;;;;;;;;;;;;;;;;;5071041;28;19916;-42
2023/03/06 14:18:15;;;;;;;;;;;;;;;;;;5063280;28;19905;-42
2023/03/06 14:20:41;;;;;;;;;;;;;;;;;;5067198;28;19908;-42
2023/03/06 14:23:07;;;;;;;;;;;;;;;;;;5071455;28;20406;-42
2023/03/06 14:25:33;;;;;;;;;;;;;;;;;;5052617;28;19908;-41
2023/03/06 14:27:58;;;;;;;;;;;;;;;;;;5071417;28;20377;-42
2023/03/06 14:30:25;;;;;;;;;;;;;;;;;;5054184;28;19912;-42
2023/03/06 14:32:51;;;;;;;;;;;;;;;;;;5071284;28;20285;-41
2023/03/06 14:35:17;;;;;;;;;;;;;;;;;;5070451;28;19991;-42
2023/03/06 14:37:43;;;;;;;;;;;;;;;;;;5071074;28;19978;-43
2023/03/06 14:40:09;;;;;;;;;;;;;;;;;;5073225;28;20254;-43
2023/03/06 14:42:36;;;;;;;;;;;;;;;;;;5075184;28;19920;-45
2023/03/06 14:45:02;;;;;;;;;;;;;;;;;;5074829;28;20274;-41
2023/03/06 14:47:28;;;;;;;;;;;;;;;;;;5073024;28;19916;-41
2023/03/06 14:49:54;;;;;;;;;;;;;;;;;;5074812;28;19916;-42
2023/03/06 14:52:19;;;;;;;;;;;;;;;;;;5074676;28;19996;-43
2023/03/06 14:54:45;;;;;;;;;;;;;;;;;;5074494;28;19908;-42
2023/03/06 14:57:11;;;;;;;;;;;;;;;;;;5074094;28;19912;-43
2023/03/06 14:59:37;;;;;;;;;;;;;;;;;;5074711;28;19910;-43
2023/03/06 15:02:03;;;;;;;;;;;;;;;;;;5073668;28;20416;-41
2023/03/06 15:04:29;;;;;;;;;;;;;;;;;;5068217;28;19908;-43
2023/03/06 15:06:55;;;;;;;;;;;;;;;;;;5073528;28;20294;-42
2023/03/06 15:09:23;;;;;;;;;;;;;;;;;;5072468;28;20007;-43
2023/03/06 15:11:49;;;;;;;;;;;;;;;;;;5072222;28;20366;-42
2023/03/06 15:14:14;;;;;;;;;;;;;;;;;;5072191;28;19947;-43
2023/03/06 15:16:40;;;;;;;;;;;;;;;;;;5073318;28;20309;-44
2023/03/06 15:19:06;;;;;;;;;;;;;;;;;;5072930;28;19919;-44
2023/03/06 15:21:32;;;;;;;;;;;;;;;;;;5070403;28;20353;-42
2023/03/06 15:23:58;;;;;;;;;;;;;;;;;;5073504;28;19949;-42
2023/03/06 15:26:24;;;;;;;;;;;;;;;;;;5073210;28;19905;-41
2023/03/06 15:28:50;;;;;;;;;;;;;;;;;;5078565;28;19911;-42
2023/03/06 15:31:17;;;;;;;;;;;;;;;;;;5073318;28;19952;-42
2023/03/06 15:33:43;;;;;;;;;;;;;;;;;;5074717;28;19912;-42
2023/03/06 15:36:09;;;;;;;;;;;;;;;;;;5073520;28;19908;-45
2023/03/06 15:38:35;;;;;;;;;;;;;;;;;;5073375;28;20383;-43
2023/03/06 15:41:01;;;;;;;;;;;;;;;;;;5073757;28;19962;-42
2023/03/06 15:43:27;;;;;;;;;;;;;;;;;;5073544;28;20686;-42
2023/03/06 15:45:52;;;;;;;;;;;;;;;;;;5074042;28;19904;-42
2023/03/06 15:48:18;;;;;;;;;;;;;;;;;;5073126;28;20003;-43
2023/03/06 15:50:44;;;;;;;;;;;;;;;;;;5072513;28;19908;-44
2023/03/06 15:53:10;;;;;;;;;;;;;;;;;;5073321;28;19955;-45
2023/03/06 15:55:36;;;;;;;;;;;;;;;;;;5072817;28;19905;-43
2023/03/06 15:58:03;;;;;;;;;;;;;;;;;;5074023;28;19939;-43
2023/03/06 16:00:29;;;;;;;;;;;;;;;;;;5072606;28;19991;-44
2023/03/06 16:02:55;;;;;;;;;;;;;;;;;;5074290;28;20355;-42
2023/03/06 16:05:21;;;;;;;;;;;;;;;;;;5072671;28;19911;-45
2023/03/06 16:07:47;;;;;;;;;;;;;;;;;;5074100;28;19904;-45
2023/03/06 16:10:12;;;;;;;;;;;;;;;;;;5072656;28;19954;-44
2023/03/06 16:12:38;;;;;;;;;;;;;;;;;;5072972;28;19912;-43
2023/03/06 16:15:04;;;;;;;;;;;;;;;;;;5073050;28;19948;-44
2023/03/06 16:17:30;;;;;;;;;;;;;;;;;;5071789;28;19908;-44
2023/03/06 16:19:56;;;;;;;;;;;;;;;;;;5063466;28;19904;-42
2023/03/06 16:22:22;;;;;;;;;;;;;;;;;;5073203;28;19905;-43
2023/03/06 16:24:49;;;;;;;;;;;;;;;;;;5072655;28;20341;-44
2023/03/06 16:27:15;;;;;;;;;;;;;;;;;;5072865;28;19904;-45
2023/03/06 16:29:41;;;;;;;;;;;;;;;;;;5072187;28;19919;-45
2023/03/06 16:32:07;;;;;;;;;;;;;;;;;;5073294;28;20416;-42
2023/03/06 16:34:33;;;;;;;;;;;;;;;;;;5071863;28;19908;-43
2023/03/06 16:36:58;;;;;;;;;;;;;;;;;;5073364;28;19904;-43